sensor_id;sensor_type;location;lat;lon;timestamp;P1;durP1;ratioP1;P2;durP2;ratioP2
52620;SDS011;38515;53.160;6.990;2023-08-06T00:01:57;711.53;;;656.25;;
52620;SDS011;38515;53.160;6.990;2023-08-06T00:04:23;696.22;;;642.97;;
52620;SDS011;38515;53.160;6.990;2023-08-06T00:06:49;709.08;;;654.35;;
52620;SDS011;38515;53.160;6.990;2023-08-06T00:09:14;711.40;;;657.45;;
52620;SDS011;38515;53.160;6.990;2023-08-06T00:11:40;702.17;;;648.33;;
52620;SDS011;38515;53.160;6.990;2023-08-06T00:14:08;716.00;;;660.55;;
52620;SDS011;38515;53.160;6.990;2023-08-06T00:16:35;719.90;;;664.72;;
52620;SDS011;38515;53.160;6.990;2023-08-06T00:19:00;697.78;;;644.47;;
52620;SDS011;38515;53.160;6.990;2023-08-06T00:21:27;718.97;;;663.70;;
52620;SDS011;38515;53.160;6.990;2023-08-06T00:23:53;689.38;;;636.47;;
52620;SDS011;38515;53.160;6.990;2023-08-06T00:26:19;704.42;;;650.58;;
52620;SDS011;38515;53.160;6.990;2023-08-06T00:28:45;712.88;;;658.08;;
52620;SDS011;38515;53.160;6.990;2023-08-06T00:31:11;715.30;;;660.67;;
52620;SDS011;38515;53.160;6.990;2023-08-06T00:33:36;692.72;;;639.53;;
52620;SDS011;38515;53.160;6.990;2023-08-06T00:36:03;713.17;;;658.75;;
52620;SDS011;38515;53.160;6.990;2023-08-06T00:38:28;710.40;;;655.83;;
52620;SDS011;38515;53.160;6.990;2023-08-06T00:40:54;717.70;;;661.70;;
52620;SDS011;38515;53.160;6.990;2023-08-06T00:43:20;720.15;;;664.88;;
52620;SDS011;38515;53.160;6.990;2023-08-06T00:45:46;707.25;;;652.65;;
52620;SDS011;38515;53.160;6.990;2023-08-06T00:48:12;711.70;;;657.67;;
52620;SDS011;38515;53.160;6.990;2023-08-06T00:50:39;722.47;;;667.50;;
52620;SDS011;38515;53.160;6.990;2023-08-06T00:53:05;703.15;;;650.25;;
52620;SDS011;38515;53.160;6.990;2023-08-06T00:55:30;736.22;;;679.95;;
52620;SDS011;38515;53.160;6.990;2023-08-06T00:57:57;702.60;;;649.90;;
52620;SDS011;38515;53.160;6.990;2023-08-06T01:00:24;730.83;;;675.38;;
52620;SDS011;38515;53.160;6.990;2023-08-06T01:02:51;706.40;;;653.42;;
52620;SDS011;38515;53.160;6.990;2023-08-06T01:05:18;745.58;;;688.58;;
52620;SDS011;38515;53.160;6.990;2023-08-06T01:13:25;708.85;;;654.60;;
52620;SDS011;38515;53.160;6.990;2023-08-06T01:15:59;726.53;;;671.35;;
52620;SDS011;38515;53.160;6.990;2023-08-06T01:18:26;728.90;;;672.67;;
52620;SDS011;38515;53.160;6.990;2023-08-06T01:20:52;744.55;;;687.75;;
52620;SDS011;38515;53.160;6.990;2023-08-06T01:23:18;732.63;;;677.13;;
52620;SDS011;38515;53.160;6.990;2023-08-06T01:28:40;720.70;;;663.75;;
52620;SDS011;38515;53.160;6.990;2023-08-06T01:31:15;745.05;;;686.45;;
52620;SDS011;38515;53.160;6.990;2023-08-06T01:33:48;719.83;;;663.35;;
52620;SDS011;38515;53.160;6.990;2023-08-06T01:36:16;719.95;;;662.88;;
52620;SDS011;38515;53.160;6.990;2023-08-06T01:38:46;725.35;;;668.22;;
52620;SDS011;38515;53.160;6.990;2023-08-06T01:41:12;713.50;;;657.30;;
52620;SDS011;38515;53.160;6.990;2023-08-06T01:43:39;724.65;;;667.63;;
52620;SDS011;38515;53.160;6.990;2023-08-06T01:46:05;711.22;;;655.85;;
52620;SDS011;38515;53.160;6.990;2023-08-06T01:48:30;738.92;;;679.88;;
52620;SDS011;38515;53.160;6.990;2023-08-06T01:50:56;723.22;;;665.30;;
52620;SDS011;38515;53.160;6.990;2023-08-06T01:53:22;726.63;;;669.75;;
52620;SDS011;38515;53.160;6.990;2023-08-06T01:55:48;717.42;;;660.47;;
52620;SDS011;38515;53.160;6.990;2023-08-06T01:58:14;735.40;;;675.80;;
52620;SDS011;38515;53.160;6.990;2023-08-06T02:00:41;724.72;;;667.92;;
52620;SDS011;38515;53.160;6.990;2023-08-06T02:03:07;755.35;;;694.63;;
52620;SDS011;38515;53.160;6.990;2023-08-06T02:05:33;752.80;;;692.70;;
52620;SDS011;38515;53.160;6.990;2023-08-06T02:07:58;744.83;;;685.10;;
52620;SDS011;38515;53.160;6.990;2023-08-06T02:10:24;726.50;;;669.45;;
52620;SDS011;38515;53.160;6.990;2023-08-06T02:12:50;732.33;;;674.13;;
52620;SDS011;38515;53.160;6.990;2023-08-06T02:15:16;703.17;;;649.40;;
52620;SDS011;38515;53.160;6.990;2023-08-06T02:17:42;713.55;;;657.88;;
52620;SDS011;38515;53.160;6.990;2023-08-06T02:20:07;716.15;;;660.80;;
52620;SDS011;38515;53.160;6.990;2023-08-06T02:22:34;721.58;;;664.08;;
52620;SDS011;38515;53.160;6.990;2023-08-06T02:24:59;713.25;;;657.45;;
52620;SDS011;38515;53.160;6.990;2023-08-06T02:27:25;710.40;;;656.70;;
52620;SDS011;38515;53.160;6.990;2023-08-06T02:29:51;720.47;;;666.15;;
52620;SDS011;38515;53.160;6.990;2023-08-06T02:32:17;749.88;;;692.60;;
52620;SDS011;38515;53.160;6.990;2023-08-06T02:34:43;740.72;;;684.15;;
52620;SDS011;38515;53.160;6.990;2023-08-06T02:37:09;731.75;;;676.67;;
52620;SDS011;38515;53.160;6.990;2023-08-06T02:39:35;768.58;;;707.13;;
52620;SDS011;38515;53.160;6.990;2023-08-06T02:42:05;730.17;;;673.08;;
52620;SDS011;38515;53.160;6.990;2023-08-06T02:44:34;735.72;;;679.15;;
52620;SDS011;38515;53.160;6.990;2023-08-06T02:47:00;723.05;;;668.65;;
52620;SDS011;38515;53.160;6.990;2023-08-06T02:49:26;703.63;;;651.13;;
52620;SDS011;38515;53.160;6.990;2023-08-06T02:51:52;703.70;;;651.05;;
52620;SDS011;38515;53.160;6.990;2023-08-06T02:54:18;706.42;;;653.58;;
52620;SDS011;38515;53.160;6.990;2023-08-06T02:56:45;688.20;;;637.53;;
52620;SDS011;38515;53.160;6.990;2023-08-06T02:59:12;715.63;;;661.45;;
52620;SDS011;38515;53.160;6.990;2023-08-06T03:01:38;701.60;;;648.40;;
52620;SDS011;38515;53.160;6.990;2023-08-06T03:04:04;731.10;;;675.15;;
52620;SDS011;38515;53.160;6.990;2023-08-06T03:06:30;727.08;;;672.42;;
52620;SDS011;38515;53.160;6.990;2023-08-06T03:08:55;703.80;;;650.40;;
52620;SDS011;38515;53.160;6.990;2023-08-06T03:11:21;685.28;;;633.53;;
52620;SDS011;38515;53.160;6.990;2023-08-06T03:13:47;721.90;;;667.58;;
52620;SDS011;38515;53.160;6.990;2023-08-06T03:16:14;721.70;;;667.75;;
52620;SDS011;38515;53.160;6.990;2023-08-06T03:18:39;714.30;;;659.80;;
52620;SDS011;38515;53.160;6.990;2023-08-06T03:21:05;713.47;;;659.10;;
52620;SDS011;38515;53.160;6.990;2023-08-06T03:23:31;681.85;;;630.40;;
52620;SDS011;38515;53.160;6.990;2023-08-06T03:26:03;722.53;;;666.83;;
52620;SDS011;38515;53.160;6.990;2023-08-06T03:28:29;702.00;;;648.40;;
52620;SDS011;38515;53.160;6.990;2023-08-06T03:30:59;718.40;;;663.50;;
52620;SDS011;38515;53.160;6.990;2023-08-06T03:33:28;692.15;;;638.25;;
52620;SDS011;38515;53.160;6.990;2023-08-06T03:35:55;696.95;;;642.63;;
52620;SDS011;38515;53.160;6.990;2023-08-06T03:38:21;682.35;;;629.92;;
52620;SDS011;38515;53.160;6.990;2023-08-06T03:40:48;705.90;;;651.70;;
52620;SDS011;38515;53.160;6.990;2023-08-06T03:43:14;695.22;;;642.20;;
52620;SDS011;38515;53.160;6.990;2023-08-06T03:45:40;727.83;;;670.33;;
52620;SDS011;38515;53.160;6.990;2023-08-06T03:48:06;710.58;;;656.60;;
52620;SDS011;38515;53.160;6.990;2023-08-06T03:50:32;694.30;;;641.58;;
52620;SDS011;38515;53.160;6.990;2023-08-06T03:52:58;703.40;;;649.65;;
52620;SDS011;38515;53.160;6.990;2023-08-06T03:55:24;715.83;;;661.17;;
52620;SDS011;38515;53.160;6.990;2023-08-06T03:57:50;711.13;;;657.75;;
52620;SDS011;38515;53.160;6.990;2023-08-06T04:00:16;698.75;;;646.22;;
52620;SDS011;38515;53.160;6.990;2023-08-06T04:02:42;722.50;;;667.08;;
52620;SDS011;38515;53.160;6.990;2023-08-06T04:05:08;704.28;;;649.97;;
52620;SDS011;38515;53.160;6.990;2023-08-06T04:07:34;724.08;;;668.95;;
52620;SDS011;38515;53.160;6.990;2023-08-06T04:10:01;742.00;;;685.00;;
52620;SDS011;38515;53.160;6.990;2023-08-06T04:12:29;730.95;;;673.90;;
52620;SDS011;38515;53.160;6.990;2023-08-06T04:14:55;701.30;;;648.53;;
52620;SDS011;38515;53.160;6.990;2023-08-06T04:17:23;726.58;;;671.35;;
52620;SDS011;38515;53.160;6.990;2023-08-06T04:19:50;718.45;;;663.08;;
52620;SDS011;38515;53.160;6.990;2023-08-06T04:22:17;705.95;;;652.35;;
52620;SDS011;38515;53.160;6.990;2023-08-06T04:24:43;701.55;;;648.17;;
52620;SDS011;38515;53.160;6.990;2023-08-06T04:27:09;701.10;;;646.50;;
52620;SDS011;38515;53.160;6.990;2023-08-06T04:29:36;716.08;;;659.97;;
52620;SDS011;38515;53.160;6.990;2023-08-06T04:32:03;703.55;;;650.45;;
52620;SDS011;38515;53.160;6.990;2023-08-06T04:34:30;707.72;;;652.67;;
52620;SDS011;38515;53.160;6.990;2023-08-06T04:36:57;696.42;;;643.75;;
52620;SDS011;38515;53.160;6.990;2023-08-06T04:39:23;723.10;;;665.65;;
52620;SDS011;38515;53.160;6.990;2023-08-06T04:41:49;683.13;;;631.90;;
52620;SDS011;38515;53.160;6.990;2023-08-06T04:44:15;714.70;;;660.42;;
52620;SDS011;38515;53.160;6.990;2023-08-06T04:46:41;699.67;;;647.05;;
52620;SDS011;38515;53.160;6.990;2023-08-06T04:49:06;699.70;;;646.53;;
52620;SDS011;38515;53.160;6.990;2023-08-06T04:51:32;691.35;;;639.17;;
52620;SDS011;38515;53.160;6.990;2023-08-06T04:53:58;735.97;;;679.47;;
52620;SDS011;38515;53.160;6.990;2023-08-06T04:56:24;727.13;;;670.80;;
52620;SDS011;38515;53.160;6.990;2023-08-06T04:58:50;667.95;;;618.03;;
52620;SDS011;38515;53.160;6.990;2023-08-06T05:01:16;661.03;;;613.42;;
52620;SDS011;38515;53.160;6.990;2023-08-06T05:03:42;692.55;;;639.72;;
52620;SDS011;38515;53.160;6.990;2023-08-06T05:06:08;676.70;;;626.38;;
52620;SDS011;38515;53.160;6.990;2023-08-06T05:08:33;693.60;;;641.70;;
52620;SDS011;38515;53.160;6.990;2023-08-06T05:10:59;700.00;;;647.95;;
52620;SDS011;38515;53.160;6.990;2023-08-06T05:13:25;700.13;;;647.05;;
52620;SDS011;38515;53.160;6.990;2023-08-06T05:15:53;689.55;;;637.35;;
52620;SDS011;38515;53.160;6.990;2023-08-06T05:18:19;671.28;;;621.33;;
52620;SDS011;38515;53.160;6.990;2023-08-06T05:20:45;709.00;;;655.10;;
52620;SDS011;38515;53.160;6.990;2023-08-06T05:23:11;733.17;;;677.50;;
52620;SDS011;38515;53.160;6.990;2023-08-06T05:25:37;699.05;;;646.33;;
52620;SDS011;38515;53.160;6.990;2023-08-06T05:28:04;716.45;;;661.97;;
52620;SDS011;38515;53.160;6.990;2023-08-06T05:30:32;677.85;;;627.00;;
52620;SDS011;38515;53.160;6.990;2023-08-06T05:32:58;681.50;;;630.97;;
52620;SDS011;38515;53.160;6.990;2023-08-06T05:35:24;747.97;;;691.20;;
52620;SDS011;38515;53.160;6.990;2023-08-06T05:37:50;719.42;;;664.50;;
52620;SDS011;38515;53.160;6.990;2023-08-06T05:40:16;737.35;;;680.75;;
52620;SDS011;38515;53.160;6.990;2023-08-06T05:42:41;811.40;;;747.00;;
52620;SDS011;38515;53.160;6.990;2023-08-06T05:45:08;726.72;;;672.20;;
52620;SDS011;38515;53.160;6.990;2023-08-06T05:47:34;732.60;;;676.92;;
52620;SDS011;38515;53.160;6.990;2023-08-06T05:50:00;739.70;;;683.97;;
52620;SDS011;38515;53.160;6.990;2023-08-06T05:52:26;703.75;;;651.67;;
52620;SDS011;38515;53.160;6.990;2023-08-06T05:54:52;772.88;;;713.15;;
52620;SDS011;38515;53.160;6.990;2023-08-06T05:57:20;732.55;;;677.20;;
52620;SDS011;38515;53.160;6.990;2023-08-06T05:59:45;731.33;;;675.65;;
52620;SDS011;38515;53.160;6.990;2023-08-06T06:02:11;730.53;;;675.45;;
52620;SDS011;38515;53.160;6.990;2023-08-06T06:04:37;731.70;;;676.47;;
52620;SDS011;38515;53.160;6.990;2023-08-06T06:07:03;773.97;;;715.03;;
52620;SDS011;38515;53.160;6.990;2023-08-06T06:09:29;737.25;;;680.80;;
52620;SDS011;38515;53.160;6.990;2023-08-06T06:11:55;730.58;;;676.05;;
52620;SDS011;38515;53.160;6.990;2023-08-06T06:14:21;727.05;;;671.83;;
52620;SDS011;38515;53.160;6.990;2023-08-06T06:16:47;747.97;;;691.47;;
52620;SDS011;38515;53.160;6.990;2023-08-06T06:19:13;733.83;;;677.92;;
52620;SDS011;38515;53.160;6.990;2023-08-06T06:21:39;733.38;;;676.70;;
52620;SDS011;38515;53.160;6.990;2023-08-06T06:24:05;757.88;;;699.88;;
52620;SDS011;38515;53.160;6.990;2023-08-06T06:26:33;738.45;;;681.65;;
52620;SDS011;38515;53.160;6.990;2023-08-06T06:28:59;741.65;;;684.47;;
52620;SDS011;38515;53.160;6.990;2023-08-06T06:31:25;723.03;;;666.83;;
52620;SDS011;38515;53.160;6.990;2023-08-06T06:33:50;756.72;;;698.65;;
52620;SDS011;38515;53.160;6.990;2023-08-06T06:36:26;751.40;;;693.45;;
52620;SDS011;38515;53.160;6.990;2023-08-06T06:38:52;727.97;;;672.35;;
52620;SDS011;38515;53.160;6.990;2023-08-06T06:41:18;653.92;;;606.33;;
52620;SDS011;38515;53.160;6.990;2023-08-06T06:43:44;739.17;;;686.00;;
52620;SDS011;38515;53.160;6.990;2023-08-06T06:46:10;702.55;;;649.83;;
52620;SDS011;38515;53.160;6.990;2023-08-06T06:48:36;714.05;;;660.40;;
52620;SDS011;38515;53.160;6.990;2023-08-06T06:51:02;681.47;;;631.38;;
52620;SDS011;38515;53.160;6.990;2023-08-06T06:53:28;722.45;;;668.50;;
52620;SDS011;38515;53.160;6.990;2023-08-06T06:55:54;730.22;;;673.50;;
52620;SDS011;38515;53.160;6.990;2023-08-06T06:58:20;741.03;;;684.45;;
52620;SDS011;38515;53.160;6.990;2023-08-06T07:00:47;795.75;;;736.00;;
52620;SDS011;38515;53.160;6.990;2023-08-06T07:03:14;742.00;;;685.30;;
52620;SDS011;38515;53.160;6.990;2023-08-06T07:05:40;744.60;;;687.90;;
52620;SDS011;38515;53.160;6.990;2023-08-06T07:08:07;724.95;;;669.67;;
52620;SDS011;38515;53.160;6.990;2023-08-06T07:10:33;730.72;;;674.17;;
52620;SDS011;38515;53.160;6.990;2023-08-06T07:12:58;744.67;;;687.17;;
52620;SDS011;38515;53.160;6.990;2023-08-06T07:15:25;674.58;;;624.47;;
52620;SDS011;38515;53.160;6.990;2023-08-06T07:17:51;681.20;;;631.55;;
52620;SDS011;38515;53.160;6.990;2023-08-06T07:20:17;678.70;;;627.65;;
52620;SDS011;38515;53.160;6.990;2023-08-06T07:22:43;698.20;;;645.28;;
52620;SDS011;38515;53.160;6.990;2023-08-06T07:25:10;716.65;;;661.80;;
52620;SDS011;38515;53.160;6.990;2023-08-06T07:27:36;761.10;;;702.53;;
52620;SDS011;38515;53.160;6.990;2023-08-06T07:30:02;718.50;;;662.08;;
52620;SDS011;38515;53.160;6.990;2023-08-06T07:32:30;803.00;;;739.35;;
52620;SDS011;38515;53.160;6.990;2023-08-06T07:34:56;689.08;;;636.58;;
52620;SDS011;38515;53.160;6.990;2023-08-06T07:37:25;706.83;;;653.22;;
52620;SDS011;38515;53.160;6.990;2023-08-06T07:39:53;698.95;;;645.58;;
52620;SDS011;38515;53.160;6.990;2023-08-06T07:42:20;790.63;;;728.72;;
52620;SDS011;38515;53.160;6.990;2023-08-06T07:44:55;781.58;;;719.47;;
52620;SDS011;38515;53.160;6.990;2023-08-06T07:47:25;736.88;;;681.33;;
52620;SDS011;38515;53.160;6.990;2023-08-06T07:49:54;703.05;;;650.28;;
52620;SDS011;38515;53.160;6.990;2023-08-06T07:52:20;707.38;;;653.20;;
52620;SDS011;38515;53.160;6.990;2023-08-06T07:54:46;796.38;;;733.80;;
52620;SDS011;38515;53.160;6.990;2023-08-06T07:57:12;788.25;;;725.83;;
52620;SDS011;38515;53.160;6.990;2023-08-06T07:59:39;747.03;;;689.78;;
52620;SDS011;38515;53.160;6.990;2023-08-06T08:02:05;752.83;;;696.85;;
52620;SDS011;38515;53.160;6.990;2023-08-06T08:04:31;658.50;;;611.13;;
52620;SDS011;38515;53.160;6.990;2023-08-06T08:06:57;710.47;;;658.05;;
52620;SDS011;38515;53.160;6.990;2023-08-06T08:09:23;727.90;;;673.80;;
52620;SDS011;38515;53.160;6.990;2023-08-06T08:11:49;745.78;;;691.25;;
52620;SDS011;38515;53.160;6.990;2023-08-06T08:14:15;720.80;;;666.72;;
52620;SDS011;38515;53.160;6.990;2023-08-06T08:16:41;717.38;;;663.70;;
52620;SDS011;38515;53.160;6.990;2023-08-06T08:19:07;723.95;;;669.75;;
52620;SDS011;38515;53.160;6.990;2023-08-06T08:21:33;714.03;;;660.65;;
52620;SDS011;38515;53.160;6.990;2023-08-06T08:24:00;674.35;;;625.33;;
52620;SDS011;38515;53.160;6.990;2023-08-06T08:26:26;636.47;;;591.05;;
52620;SDS011;38515;53.160;6.990;2023-08-06T08:28:54;648.33;;;600.90;;
52620;SDS011;38515;53.160;6.990;2023-08-06T08:31:20;653.88;;;606.33;;
52620;SDS011;38515;53.160;6.990;2023-08-06T08:33:46;662.25;;;613.58;;
52620;SDS011;38515;53.160;6.990;2023-08-06T08:36:12;684.30;;;634.55;;
52620;SDS011;38515;53.160;6.990;2023-08-06T08:38:38;713.60;;;659.67;;
52620;SDS011;38515;53.160;6.990;2023-08-06T08:41:04;636.83;;;592.47;;
52620;SDS011;38515;53.160;6.990;2023-08-06T08:43:31;673.30;;;624.05;;
52620;SDS011;38515;53.160;6.990;2023-08-06T08:45:57;654.00;;;607.25;;
52620;SDS011;38515;53.160;6.990;2023-08-06T08:48:24;691.97;;;641.17;;
52620;SDS011;38515;53.160;6.990;2023-08-06T08:50:52;722.67;;;669.13;;
52620;SDS011;38515;53.160;6.990;2023-08-06T08:53:18;654.75;;;604.80;;
52620;SDS011;38515;53.160;6.990;2023-08-06T08:55:47;713.05;;;660.10;;
52620;SDS011;38515;53.160;6.990;2023-08-06T08:58:14;677.38;;;626.63;;
52620;SDS011;38515;53.160;6.990;2023-08-06T09:00:44;724.75;;;671.88;;
52620;SDS011;38515;53.160;6.990;2023-08-06T09:03:13;723.08;;;669.80;;
52620;SDS011;38515;53.160;6.990;2023-08-06T09:05:41;709.28;;;655.95;;
52620;SDS011;38515;53.160;6.990;2023-08-06T09:08:11;670.65;;;619.75;;
52620;SDS011;38515;53.160;6.990;2023-08-06T09:10:41;642.10;;;595.65;;
52620;SDS011;38515;53.160;6.990;2023-08-06T09:13:09;652.78;;;603.35;;
52620;SDS011;38515;53.160;6.990;2023-08-06T09:15:37;675.10;;;625.60;;
52620;SDS011;38515;53.160;6.990;2023-08-06T09:18:09;693.33;;;640.92;;
52620;SDS011;38515;53.160;6.990;2023-08-06T09:20:44;694.30;;;641.45;;
52620;SDS011;38515;53.160;6.990;2023-08-06T09:23:10;704.75;;;651.78;;
52620;SDS011;38515;53.160;6.990;2023-08-06T09:25:39;595.67;;;553.00;;
52620;SDS011;38515;53.160;6.990;2023-08-06T09:28:11;566.37;;;526.73;;
52620;SDS011;38515;53.160;6.990;2023-08-06T09:30:37;633.60;;;585.85;;
52620;SDS011;38515;53.160;6.990;2023-08-06T09:33:05;500.45;;;467.25;;
52620;SDS011;38515;53.160;6.990;2023-08-06T09:35:39;521.42;;;487.75;;
52620;SDS011;38515;53.160;6.990;2023-08-06T09:38:06;563.85;;;523.78;;
52620;SDS011;38515;53.160;6.990;2023-08-06T09:40:33;556.75;;;517.35;;
52620;SDS011;38515;53.160;6.990;2023-08-06T09:43:00;607.72;;;561.60;;
52620;SDS011;38515;53.160;6.990;2023-08-06T09:45:28;570.83;;;529.17;;
52620;SDS011;38515;53.160;6.990;2023-08-06T09:47:57;508.58;;;474.50;;
52620;SDS011;38515;53.160;6.990;2023-08-06T09:50:29;527.03;;;492.58;;
52620;SDS011;38515;53.160;6.990;2023-08-06T09:52:57;553.05;;;514.95;;
52620;SDS011;38515;53.160;6.990;2023-08-06T09:55:24;449.73;;;422.95;;
52620;SDS011;38515;53.160;6.990;2023-08-06T09:57:51;439.52;;;413.85;;
52620;SDS011;38515;53.160;6.990;2023-08-06T10:00:18;364.08;;;343.27;;
52620;SDS011;38515;53.160;6.990;2023-08-06T10:02:45;418.45;;;394.00;;
52620;SDS011;38515;53.160;6.990;2023-08-06T10:05:11;454.55;;;426.10;;
52620;SDS011;38515;53.160;6.990;2023-08-06T10:07:38;393.30;;;371.27;;
52620;SDS011;38515;53.160;6.990;2023-08-06T10:10:05;473.17;;;444.38;;
52620;SDS011;38515;53.160;6.990;2023-08-06T10:12:32;470.92;;;442.55;;
52620;SDS011;38515;53.160;6.990;2023-08-06T10:15:12;313.90;;;297.83;;
52620;SDS011;38515;53.160;6.990;2023-08-06T10:17:42;413.60;;;389.75;;
52620;SDS011;38515;53.160;6.990;2023-08-06T10:20:10;451.55;;;425.30;;
52620;SDS011;38515;53.160;6.990;2023-08-06T10:22:38;441.40;;;415.25;;
52620;SDS011;38515;53.160;6.990;2023-08-06T10:25:09;379.55;;;358.48;;
52620;SDS011;38515;53.160;6.990;2023-08-06T10:27:39;383.77;;;362.77;;
52620;SDS011;38515;53.160;6.990;2023-08-06T10:30:25;449.23;;;422.45;;
52620;SDS011;38515;53.160;6.990;2023-08-06T10:32:53;298.55;;;283.10;;
52620;SDS011;38515;53.160;6.990;2023-08-06T10:35:44;434.48;;;409.63;;
52620;SDS011;38515;53.160;6.990;2023-08-06T10:38:12;388.50;;;366.38;;
52620;SDS011;38515;53.160;6.990;2023-08-06T10:41:00;384.93;;;362.87;;
52620;SDS011;38515;53.160;6.990;2023-08-06T10:43:32;341.88;;;322.40;;
52620;SDS011;38515;53.160;6.990;2023-08-06T10:46:02;423.60;;;399.30;;
52620;SDS011;38515;53.160;6.990;2023-08-06T10:48:38;237.55;;;225.02;;
52620;SDS011;38515;53.160;6.990;2023-08-06T10:51:09;365.85;;;345.27;;
52620;SDS011;38515;53.160;6.990;2023-08-06T10:53:43;321.20;;;304.08;;
52620;SDS011;38515;53.160;6.990;2023-08-06T10:56:14;334.85;;;315.50;;
52620;SDS011;38515;53.160;6.990;2023-08-06T10:58:41;342.38;;;323.35;;
52620;SDS011;38515;53.160;6.990;2023-08-06T11:01:09;362.65;;;343.15;;
52620;SDS011;38515;53.160;6.990;2023-08-06T11:03:35;368.83;;;348.73;;
52620;SDS011;38515;53.160;6.990;2023-08-06T11:06:02;206.13;;;196.43;;
52620;SDS011;38515;53.160;6.990;2023-08-06T11:08:31;166.70;;;159.23;;
52620;SDS011;38515;53.160;6.990;2023-08-06T11:11:10;365.90;;;344.75;;
52620;SDS011;38515;53.160;6.990;2023-08-06T11:13:40;338.10;;;319.42;;
52620;SDS011;38515;53.160;6.990;2023-08-06T11:16:20;330.58;;;312.77;;
52620;SDS011;38515;53.160;6.990;2023-08-06T11:18:49;375.27;;;354.02;;
52620;SDS011;38515;53.160;6.990;2023-08-06T11:21:18;312.90;;;296.02;;
52620;SDS011;38515;53.160;6.990;2023-08-06T11:23:45;326.50;;;308.48;;
52620;SDS011;38515;53.160;6.990;2023-08-06T11:26:11;363.42;;;343.25;;
52620;SDS011;38515;53.160;6.990;2023-08-06T11:28:37;124.10;;;118.57;;
52620;SDS011;38515;53.160;6.990;2023-08-06T11:31:03;369.67;;;349.25;;
52620;SDS011;38515;53.160;6.990;2023-08-06T11:33:29;355.98;;;335.58;;
52620;SDS011;38515;53.160;6.990;2023-08-06T11:35:56;325.25;;;307.73;;
52620;SDS011;38515;53.160;6.990;2023-08-06T11:38:25;339.10;;;320.27;;
52620;SDS011;38515;53.160;6.990;2023-08-06T11:40:52;254.65;;;241.63;;
52620;SDS011;38515;53.160;6.990;2023-08-06T11:43:18;335.38;;;317.60;;
52620;SDS011;38515;53.160;6.990;2023-08-06T11:45:47;320.42;;;302.48;;
52620;SDS011;38515;53.160;6.990;2023-08-06T11:48:18;341.45;;;322.90;;
52620;SDS011;38515;53.160;6.990;2023-08-06T11:50:44;326.20;;;308.27;;
52620;SDS011;38515;53.160;6.990;2023-08-06T11:53:12;337.23;;;318.02;;
52620;SDS011;38515;53.160;6.990;2023-08-06T11:55:39;312.33;;;293.67;;
52620;SDS011;38515;53.160;6.990;2023-08-06T11:58:05;305.00;;;288.17;;
52620;SDS011;38515;53.160;6.990;2023-08-06T12:00:32;314.05;;;296.00;;
52620;SDS011;38515;53.160;6.990;2023-08-06T12:02:58;365.27;;;344.35;;
52620;SDS011;38515;53.160;6.990;2023-08-06T12:05:28;347.55;;;327.98;;
52620;SDS011;38515;53.160;6.990;2023-08-06T12:07:59;313.40;;;296.10;;
52620;SDS011;38515;53.160;6.990;2023-08-06T12:10:27;324.45;;;306.27;;
52620;SDS011;38515;53.160;6.990;2023-08-06T12:12:54;311.17;;;294.30;;
52620;SDS011;38515;53.160;6.990;2023-08-06T12:15:20;350.08;;;330.13;;
52620;SDS011;38515;53.160;6.990;2023-08-06T12:17:47;321.35;;;303.55;;
52620;SDS011;38515;53.160;6.990;2023-08-06T12:20:12;341.40;;;322.50;;
52620;SDS011;38515;53.160;6.990;2023-08-06T12:22:38;347.25;;;327.95;;
52620;SDS011;38515;53.160;6.990;2023-08-06T12:25:08;308.50;;;292.27;;
52620;SDS011;38515;53.160;6.990;2023-08-06T12:27:37;330.33;;;312.35;;
52620;SDS011;38515;53.160;6.990;2023-08-06T12:30:04;282.20;;;267.58;;
52620;SDS011;38515;53.160;6.990;2023-08-06T12:32:31;334.23;;;314.88;;
52620;SDS011;38515;53.160;6.990;2023-08-06T12:34:57;365.63;;;344.73;;
52620;SDS011;38515;53.160;6.990;2023-08-06T12:37:24;372.35;;;350.27;;
52620;SDS011;38515;53.160;6.990;2023-08-06T12:39:50;359.45;;;339.40;;
52620;SDS011;38515;53.160;6.990;2023-08-06T12:42:16;335.98;;;316.42;;
52620;SDS011;38515;53.160;6.990;2023-08-06T12:44:42;316.50;;;298.50;;
52620;SDS011;38515;53.160;6.990;2023-08-06T12:47:08;368.15;;;347.33;;
52620;SDS011;38515;53.160;6.990;2023-08-06T12:49:34;386.92;;;363.15;;
52620;SDS011;38515;53.160;6.990;2023-08-06T12:52:00;387.23;;;363.58;;
52620;SDS011;38515;53.160;6.990;2023-08-06T12:54:26;346.00;;;325.50;;
52620;SDS011;38515;53.160;6.990;2023-08-06T12:56:52;362.63;;;341.27;;
52620;SDS011;38515;53.160;6.990;2023-08-06T12:59:18;311.15;;;294.90;;
52620;SDS011;38515;53.160;6.990;2023-08-06T13:01:44;369.40;;;348.20;;
52620;SDS011;38515;53.160;6.990;2023-08-06T13:04:12;322.38;;;304.20;;
52620;SDS011;38515;53.160;6.990;2023-08-06T13:06:38;300.88;;;284.65;;
52620;SDS011;38515;53.160;6.990;2023-08-06T13:09:08;340.45;;;321.48;;
52620;SDS011;38515;53.160;6.990;2023-08-06T13:11:35;312.08;;;294.70;;
52620;SDS011;38515;53.160;6.990;2023-08-06T13:14:09;366.30;;;344.85;;
52620;SDS011;38515;53.160;6.990;2023-08-06T13:16:37;372.75;;;350.05;;
52620;SDS011;38515;53.160;6.990;2023-08-06T13:19:05;349.80;;;329.58;;
52620;SDS011;38515;53.160;6.990;2023-08-06T13:21:58;347.10;;;327.83;;
52620;SDS011;38515;53.160;6.990;2023-08-06T13:24:26;369.55;;;347.85;;
52620;SDS011;38515;53.160;6.990;2023-08-06T13:26:52;393.80;;;370.95;;
52620;SDS011;38515;53.160;6.990;2023-08-06T13:29:18;400.90;;;376.98;;
52620;SDS011;38515;53.160;6.990;2023-08-06T13:31:44;428.23;;;401.27;;
52620;SDS011;38515;53.160;6.990;2023-08-06T13:34:10;409.08;;;383.65;;
52620;SDS011;38515;53.160;6.990;2023-08-06T13:36:36;402.98;;;379.27;;
52620;SDS011;38515;53.160;6.990;2023-08-06T13:39:02;382.67;;;360.75;;
52620;SDS011;38515;53.160;6.990;2023-08-06T13:41:30;363.92;;;342.85;;
52620;SDS011;38515;53.160;6.990;2023-08-06T13:43:56;393.48;;;370.83;;
52620;SDS011;38515;53.160;6.990;2023-08-06T13:46:22;314.60;;;297.20;;
52620;SDS011;38515;53.160;6.990;2023-08-06T13:48:48;399.20;;;375.23;;
52620;SDS011;38515;53.160;6.990;2023-08-06T13:51:17;385.48;;;363.05;;
52620;SDS011;38515;53.160;6.990;2023-08-06T13:53:43;349.38;;;329.45;;
52620;SDS011;38515;53.160;6.990;2023-08-06T13:56:09;350.73;;;330.30;;
52620;SDS011;38515;53.160;6.990;2023-08-06T13:58:36;274.63;;;258.85;;
52620;SDS011;38515;53.160;6.990;2023-08-06T14:01:05;365.25;;;344.40;;
52620;SDS011;38515;53.160;6.990;2023-08-06T14:03:32;309.67;;;292.50;;
52620;SDS011;38515;53.160;6.990;2023-08-06T14:05:57;325.08;;;306.95;;